Time;durP1;ratioP1;P1;durP2;ratioP2;P2;SDS_P1;SDS_P2;PMS_P1;PMS_P2;Temp;Humidity;BMP_temperature;BMP_pressure;BME280_temperature;BME280_humidity;BME280_pressure;Samples;Min_cycle;Max_cycle;Signal;HPM_P1;HPM_P2
2022/08/25 00:00:07;;;;;;;1.60;1.50;;;28.70;39.60;;;;;;5171452;27;45176;-71
2022/08/25 00:02:35;;;;;;;1.83;1.70;;;28.70;39.60;;;;;;5171367;27;45424;-71
2022/08/25 00:05:02;;;;;;;1.52;1.42;;;28.70;39.70;;;;;;5170833;27;46620;-71
2022/08/25 00:07:28;;;;;;;1.60;1.50;;;28.70;39.70;;;;;;5159048;27;45204;-71
2022/08/25 00:09:55;;;;;;;1.48;1.38;;;28.70;39.70;;;;;;5150028;27;45193;-71
2022/08/25 00:12:22;;;;;;;1.77;1.67;;;28.60;39.70;;;;;;5150221;27;45181;-72
2022/08/25 00:14:49;;;;;;;2.17;1.38;;;28.60;39.70;;;;;;5151023;27;47104;-71
2022/08/25 00:17:15;;;;;;;1.83;1.60;;;28.60;39.70;;;;;;5159499;27;45366;-71
2022/08/25 00:19:44;;;;;;;1.50;1.40;;;28.60;39.80;;;;;;5149901;27;45282;-71
2022/08/25 00:22:10;;;;;;;1.77;1.63;;;28.60;39.80;;;;;;5150102;27;45260;-71
2022/08/25 00:24:37;;;;;;;1.58;1.48;;;28.50;39.80;;;;;;5149562;27;45475;-71
2022/08/25 00:27:05;;;;;;;1.70;1.42;;;28.60;39.80;;;;;;5146909;27;45305;-71
2022/08/25 00:29:32;;;;;;;1.60;1.50;;;28.50;39.80;;;;;;5150721;27;45170;-71
2022/08/25 00:31:59;;;;;;;1.80;1.70;;;28.50;39.80;;;;;;5170818;27;45209;-71
2022/08/25 00:34:28;;;;;;;1.80;1.70;;;28.50;39.80;;;;;;5170443;27;46686;-71
2022/08/25 00:36:56;;;;;;;1.80;1.70;;;28.50;39.90;;;;;;5169042;27;45362;-72
2022/08/25 00:39:23;;;;;;;1.70;1.60;;;28.40;39.90;;;;;;5170155;27;45235;-70
2022/08/25 00:41:50;;;;;;;1.50;1.40;;;28.40;39.90;;;;;;5170610;27;45159;-71
2022/08/25 00:44:18;;;;;;;1.60;1.50;;;28.40;39.90;;;;;;5170200;27;45214;-71
2022/08/25 00:46:47;;;;;;;1.55;1.45;;;28.40;39.90;;;;;;5170380;27;45301;-71
2022/08/25 00:49:16;;;;;;;1.25;1.20;;;28.40;40.00;;;;;;5170381;27;45163;-71
2022/08/25 00:51:44;;;;;;;1.50;1.40;;;28.40;39.90;;;;;;5167585;27;45204;-71
2022/08/25 00:54:14;;;;;;;1.50;1.40;;;28.40;40.00;;;;;;5169999;27;46409;-71
2022/08/25 00:56:41;;;;;;;1.45;1.30;;;28.30;40.00;;;;;;5170266;27;45136;-71
2022/08/25 00:59:08;;;;;;;1.27;1.27;;;28.30;39.90;;;;;;5170219;27;45292;-71
2022/08/25 01:01:35;;;;;;;1.50;1.40;;;28.30;40.00;;;;;;5170443;27;45285;-71
2022/08/25 01:04:02;;;;;;;1.45;1.35;;;28.30;40.00;;;;;;5169851;27;46384;-71
2022/08/25 01:06:29;;;;;;;1.42;1.33;;;28.30;40.00;;;;;;5166512;27;45125;-72
2022/08/25 01:08:56;;;;;;;1.48;1.40;;;28.30;40.20;;;;;;5148989;27;45219;-72
2022/08/25 01:11:24;;;;;;;1.58;1.48;;;28.20;40.00;;;;;;5149064;27;45274;-70
2022/08/25 01:13:52;;;;;;;1.60;1.50;;;28.20;40.10;;;;;;5148857;27;46659;-71
2022/08/25 01:16:19;;;;;;;1.48;1.38;;;28.20;40.00;;;;;;5159954;27;45132;-71
2022/08/25 01:18:48;;;;;;;1.55;1.48;;;28.20;40.10;;;;;;5148977;27;45173;-72
2022/08/25 01:21:16;;;;;;;1.50;1.40;;;28.20;40.20;;;;;;5148906;27;45382;-71
2022/08/25 01:23:43;;;;;;;1.45;1.35;;;28.20;40.20;;;;;;5148519;27;47021;-71
2022/08/25 01:26:12;;;;;;;1.48;1.38;;;28.10;40.20;;;;;;5148847;27;45163;-71
2022/08/25 01:29:19;;;;;;;1.50;1.40;;;28.10;40.10;;;;;;5148490;27;45300;-70
2022/08/25 01:31:26;;;;;;;1.95;1.60;;;28.10;40.20;;;;;;5165863;27;45491;-71
2022/08/25 01:33:53;;;;;;;1.60;1.50;;;28.10;40.20;;;;;;5169562;27;46397;-71
2022/08/25 01:36:21;;;;;;;1.52;1.42;;;28.10;40.20;;;;;;5168961;27;45187;-71
2022/08/25 01:38:48;;;;;;;1.52;1.42;;;28.10;40.20;;;;;;5169645;27;45180;-70
2022/08/25 01:41:16;;;;;;;1.30;1.20;;;28.10;40.30;;;;;;5169663;27;45445;-70
2022/08/25 01:43:43;;;;;;;1.20;1.15;;;28.00;40.30;;;;;;5169311;27;45331;-70
2022/08/25 01:46:09;;;;;;;1.58;1.40;;;28.00;40.30;;;;;;5169445;27;45230;-71
2022/08/25 01:48:36;;;;;;;1.38;1.27;;;28.00;40.30;;;;;;5173178;27;45126;-71
2022/08/25 01:51:03;;;;;;;1.50;1.40;;;28.00;40.30;;;;;;5173471;27;45488;-72
2022/08/25 01:53:31;;;;;;;1.30;1.20;;;27.90;40.30;;;;;;5173066;27;46459;-71
2022/08/25 01:56:01;;;;;;;1.30;1.20;;;27.90;40.40;;;;;;5173071;27;45253;-71
2022/08/25 01:58:29;;;;;;;1.50;1.45;;;27.90;40.30;;;;;;5173190;27;45307;-71
2022/08/25 02:00:59;;;;;;;1.30;1.25;;;27.90;40.30;;;;;;5173330;27;45350;-71
2022/08/25 02:03:26;;;;;;;1.35;1.25;;;27.90;40.40;;;;;;5172722;27;46679;-71
2022/08/25 02:05:53;;;;;;;1.30;1.30;;;27.90;40.40;;;;;;5172934;27;45188;-71
2022/08/25 02:08:20;;;;;;;1.40;1.30;;;27.80;40.70;;;;;;5153570;27;45285;-71
2022/08/25 02:10:48;;;;;;;1.70;1.42;;;27.90;40.40;;;;;;5151797;27;45651;-72
2022/08/25 02:13:15;;;;;;;1.40;1.30;;;27.80;40.30;;;;;;5151555;27;46763;-71
2022/08/25 02:15:43;;;;;;;1.40;1.30;;;27.80;40.40;;;;;;5160450;27;45340;-71
2022/08/25 02:18:10;;;;;;;1.20;1.10;;;27.70;40.40;;;;;;5153902;27;45287;-71
2022/08/25 02:20:37;;;;;;;1.20;1.20;;;27.70;40.50;;;;;;5151676;27;45580;-72
2022/08/25 02:23:04;;;;;;;1.08;1.08;;;27.70;40.40;;;;;;5151418;27;46424;-71
2022/08/25 02:25:31;;;;;;;1.20;1.20;;;27.70;40.40;;;;;;5151203;27;45182;-70
2022/08/25 02:27:59;;;;;;;1.48;1.38;;;27.70;40.50;;;;;;5151751;27;45169;-70
2022/08/25 02:30:26;;;;;;;1.35;1.27;;;27.70;41.10;;;;;;5160545;27;45399;-71
2022/08/25 02:32:53;;;;;;;1.10;1.10;;;27.70;41.10;;;;;;5172388;27;46608;-70
2022/08/25 02:35:20;;;;;;;1.35;1.25;;;27.60;41.00;;;;;;5172436;27;45444;-71
2022/08/25 02:37:46;;;;;;;1.35;1.25;;;27.60;40.60;;;;;;5172203;27;45173;-71
2022/08/25 02:40:13;;;;;;;1.83;1.38;;;27.60;40.60;;;;;;5172775;27;45543;-70
2022/08/25 02:42:40;;;;;;;1.58;1.48;;;27.60;40.50;;;;;;5172289;27;45354;-71
2022/08/25 02:45:09;;;;;;;1.33;1.33;;;27.60;40.50;;;;;;5172165;27;45408;-70
2022/08/25 02:47:36;;;;;;;1.20;1.20;;;27.50;40.50;;;;;;5172479;27;45190;-71
2022/08/25 02:50:04;;;;;;;1.50;1.40;;;27.50;40.60;;;;;;5172508;27;45447;-71
2022/08/25 02:52:30;;;;;;;1.60;1.50;;;27.50;40.50;;;;;;5172079;27;47301;-70
2022/08/25 02:54:57;;;;;;;1.40;1.30;;;27.50;40.50;;;;;;5172103;27;45297;-71
2022/08/25 02:57:24;;;;;;;1.42;1.40;;;27.50;40.50;;;;;;5172128;27;45175;-71
2022/08/25 02:59:51;;;;;;;1.42;1.33;;;27.50;40.60;;;;;;5171604;27;45243;-70
2022/08/25 03:02:19;;;;;;;1.42;1.20;;;27.50;40.60;;;;;;5171919;27;46409;-71
2022/08/25 03:04:46;;;;;;;1.42;1.33;;;27.50;40.70;;;;;;5171893;27;45369;-70
2022/08/25 03:07:13;;;;;;;1.30;1.20;;;27.50;40.60;;;;;;5162226;27;45302;-71
2022/08/25 03:09:39;;;;;;;1.42;1.30;;;27.40;40.60;;;;;;5150796;27;45163;-70
2022/08/25 03:12:08;;;;;;;2.85;1.60;;;27.40;40.60;;;;;;5150508;27;45231;-70
2022/08/25 03:14:34;;;;;;;1.10;1.10;;;27.40;40.70;;;;;;5150571;27;45317;-70
2022/08/25 03:17:01;;;;;;;1.17;1.10;;;27.40;40.70;;;;;;5162039;27;45247;-70
2022/08/25 03:19:29;;;;;;;1.48;1.30;;;27.40;40.80;;;;;;5150852;27;45340;-70
2022/08/25 03:21:57;;;;;;;1.35;1.27;;;27.30;40.70;;;;;;5150421;27;45443;-70
2022/08/25 03:24:24;;;;;;;1.65;1.27;;;27.30;40.70;;;;;;5150534;27;45306;-71
2022/08/25 03:26:52;;;;;;;1.27;1.15;;;27.30;40.70;;;;;;5150709;27;45304;-71
2022/08/25 03:29:19;;;;;;;2.05;1.48;;;27.30;40.70;;;;;;5150647;27;45444;-71
2022/08/25 03:31:46;;;;;;;1.17;1.13;;;27.30;40.70;;;;;;5170662;27;46402;-71
2022/08/25 03:34:15;;;;;;;1.48;1.38;;;27.30;40.80;;;;;;5171236;27;45237;-70
2022/08/25 03:36:43;;;;;;;1.40;1.30;;;27.30;40.70;;;;;;5171203;27;45273;-72
2022/08/25 03:39:10;;;;;;;1.52;1.42;;;27.30;40.80;;;;;;5171541;27;45155;-70
2022/08/25 03:41:37;;;;;;;1.30;1.30;;;27.20;40.70;;;;;;5171130;27;45232;-70
2022/08/25 03:44:04;;;;;;;1.40;1.30;;;27.20;40.70;;;;;;5171151;27;45393;-70
2022/08/25 03:46:32;;;;;;;1.50;1.40;;;27.20;40.80;;;;;;5171181;27;45328;-70
2022/08/25 03:49:00;;;;;;;1.20;1.20;;;27.30;40.90;;;;;;5171378;27;45458;-71
2022/08/25 03:51:28;;;;;;;1.30;1.20;;;27.20;40.80;;;;;;5170888;27;46705;-71
2022/08/25 03:53:57;;;;;;;2.90;1.38;;;27.20;40.70;;;;;;5170919;27;45259;-71
2022/08/25 03:56:23;;;;;;;2.08;1.35;;;27.20;40.80;;;;;;5171126;27;45283;-71
2022/08/25 03:58:50;;;;;;;1.30;1.30;;;27.20;40.90;;;;;;5171025;27;45398;-70
2022/08/25 04:01:17;;;;;;;1.20;1.20;;;27.20;40.80;;;;;;5170816;27;45213;-70
2022/08/25 04:03:44;;;;;;;1.30;1.20;;;27.10;40.70;;;;;;5170834;27;45304;-71
2022/08/25 04:06:11;;;;;;;1.33;1.30;;;27.10;40.70;;;;;;5170450;27;45266;-71
2022/08/25 04:08:38;;;;;;;1.40;1.30;;;27.10;40.70;;;;;;5150364;27;45339;-71
2022/08/25 04:11:09;;;;;;;1.20;1.10;;;27.10;40.70;;;;;;5149574;27;46396;-70
2022/08/25 04:13:36;;;;;;;1.10;1.10;;;27.10;41.40;;;;;;5149495;27;45252;-70
2022/08/25 04:16:04;;;;;;;2.60;1.40;;;27.00;40.80;;;;;;5150363;27;45357;-70
2022/08/25 04:18:30;;;;;;;1.42;1.35;;;27.10;40.70;;;;;;5171057;27;45167;-71
2022/08/25 04:21:02;;;;;;;1.20;1.20;;;27.00;40.80;;;;;;5170517;27;45480;-70
2022/08/25 04:23:28;;;;;;;1.70;1.23;;;27.00;40.70;;;;;;5170631;27;45301;-71
2022/08/25 04:25:55;;;;;;;1.13;1.10;;;27.00;41.40;;;;;;5170724;27;45209;-70
2022/08/25 04:28:23;;;;;;;1.30;1.20;;;27.00;40.80;;;;;;5170746;27;45175;-70
2022/08/25 04:30:50;;;;;;;1.10;1.10;;;27.00;40.80;;;;;;5157789;27;46450;-70
2022/08/25 04:33:17;;;;;;;1.25;1.25;;;27.00;40.90;;;;;;5149374;27;45293;-71
2022/08/25 04:35:47;;;;;;;1.20;1.20;;;27.00;40.90;;;;;;5149491;27;45273;-71
2022/08/25 04:38:14;;;;;;;1.50;1.40;;;27.00;40.80;;;;;;5149420;27;45339;-71
2022/08/25 04:40:41;;;;;;;1.05;1.05;;;26.90;40.80;;;;;;5149267;27;46387;-71
2022/08/25 04:43:07;;;;;;;1.88;1.33;;;26.90;40.90;;;;;;5149067;27;45297;-71
2022/08/25 04:45:38;;;;;;;1.23;1.23;;;26.90;40.80;;;;;;5148604;27;45164;-71
2022/08/25 04:48:05;;;;;;;3.45;1.38;;;26.80;40.80;;;;;;5149161;27;45291;-70
2022/08/25 04:50:32;;;;;;;1.40;1.30;;;26.80;40.90;;;;;;5148993;27;47367;-70
2022/08/25 04:52:58;;;;;;;1.63;1.15;;;26.80;40.80;;;;;;5148897;27;45374;-70
2022/08/25 04:55:25;;;;;;;1.45;1.35;;;26.80;40.90;;;;;;5149310;27;45200;-72
2022/08/25 04:57:52;;;;;;;1.10;1.10;;;26.80;40.80;;;;;;5149447;27;45110;-71
2022/08/25 05:00:19;;;;;;;0.95;0.95;;;26.80;40.80;;;;;;5149291;27;46366;-71
2022/08/25 05:02:48;;;;;;;1.92;1.10;;;26.80;40.90;;;;;;5149057;27;45351;-71
2022/08/25 05:05:15;;;;;;;1.30;1.20;;;26.80;40.90;;;;;;5148625;27;45198;-71
2022/08/25 05:07:42;;;;;;;1.15;1.13;;;26.80;40.90;;;;;;5148952;27;45162;-71
2022/08/25 05:10:08;;;;;;;1.27;1.17;;;26.70;41.00;;;;;;5148855;27;45357;-71
2022/08/25 05:12:35;;;;;;;1.30;1.20;;;26.70;41.10;;;;;;5148765;27;45308;-71
2022/08/25 05:15:49;;;;;;;1.48;1.30;;;26.70;41.10;;;;;;5148847;27;45304;-72
2022/08/25 05:17:50;;;;;;;1.45;1.35;;;26.70;41.10;;;;;;5148589;27;45199;-71
2022/08/25 05:20:18;;;;;;;1.70;1.08;;;26.70;41.20;;;;;;5148784;27;47386;-71
2022/08/25 05:22:45;;;;;;;1.48;1.38;;;26.70;41.20;;;;;;5148052;27;45444;-71
2022/08/25 05:25:13;;;;;;;2.50;1.35;;;26.70;41.10;;;;;;5148892;27;45257;-72
2022/08/25 05:27:40;;;;;;;1.40;1.30;;;26.60;41.00;;;;;;5149072;27;45232;-71
2022/08/25 05:30:08;;;;;;;1.10;1.10;;;26.60;41.10;;;;;;5148631;27;45259;-71
2022/08/25 05:32:35;;;;;;;1.25;1.23;;;26.60;41.20;;;;;;5148528;27;45236;-71
2022/08/25 05:35:03;;;;;;;1.00;1.00;;;26.60;41.20;;;;;;5142577;27;45392;-71
2022/08/25 05:37:30;;;;;;;1.58;1.48;;;26.60;41.20;;;;;;5146207;27;45213;-72
2022/08/25 05:39:57;;;;;;;1.50;1.40;;;26.60;41.10;;;;;;5148054;27;46411;-71
2022/08/25 05:42:23;;;;;;;1.60;1.50;;;26.50;41.20;;;;;;5148515;27;45229;-71
2022/08/25 05:44:50;;;;;;;1.15;1.15;;;26.50;41.30;;;;;;5148605;27;45280;-71
2022/08/25 05:47:17;;;;;;;1.95;1.52;;;26.50;41.30;;;;;;5148496;27;45232;-72
2022/08/25 05:49:44;;;;;;;1.33;1.27;;;26.50;41.40;;;;;;5148389;27;46408;-71
2022/08/25 05:52:12;;;;;;;1.60;1.50;;;26.50;41.40;;;;;;5147984;27;45385;-71
2022/08/25 05:54:39;;;;;;;1.48;1.38;;;26.50;41.30;;;;;;5139245;27;45284;-72
2022/08/25 05:57:06;;;;;;;1.45;1.40;;;26.50;41.40;;;;;;5143868;27;45464;-71
2022/08/25 05:59:34;;;;;;;3.22;1.80;;;26.40;41.90;;;;;;5148237;27;45251;-71
2022/08/25 06:04:45;;;;;;;1.98;1.88;;;26.50;42.50;;;;;;5145332;27;45338;-72
2022/08/25 06:07:13;;;;;;;4.22;2.00;;;26.40;42.60;;;;;;5148436;27;45414;-72
2022/08/25 06:09:40;;;;;;;2.63;2.10;;;26.40;42.40;;;;;;5148079;27;45230;-71
2022/08/25 06:12:08;;;;;;;2.10;1.60;;;26.40;42.30;;;;;;5148283;27;45309;-71
2022/08/25 06:14:35;;;;;;;3.70;1.98;;;26.40;42.30;;;;;;5148445;27;45216;-72
2022/08/25 06:17:01;;;;;;;2.17;1.80;;;26.40;42.40;;;;;;5148255;27;45619;-71
2022/08/25 06:19:29;;;;;;;3.08;2.03;;;26.40;42.30;;;;;;5148112;27;46388;-71
2022/08/25 06:21:56;;;;;;;2.53;2.10;;;26.50;42.30;;;;;;5148010;27;45351;-71
2022/08/25 06:24:25;;;;;;;2.55;2.10;;;26.40;42.20;;;;;;5148244;27;45321;-71
2022/08/25 06:26:52;;;;;;;3.92;2.13;;;26.40;42.20;;;;;;5148139;27;45165;-71
2022/08/25 06:29:19;;;;;;;3.28;1.90;;;26.40;42.20;;;;;;5147620;27;47363;-71
2022/08/25 06:31:48;;;;;;;2.28;2.08;;;26.50;42.20;;;;;;5147442;27;45428;-71
2022/08/25 06:34:15;;;;;;;3.63;1.70;;;26.50;42.10;;;;;;5149342;27;45356;-71
2022/08/25 06:36:42;;;;;;;3.75;2.10;;;26.50;42.10;;;;;;5155822;27;45124;-71
2022/08/25 06:39:09;;;;;;;3.03;1.75;;;26.50;42.10;;;;;;5172591;27;46374;-72
2022/08/25 06:41:37;;;;;;;2.75;1.98;;;26.50;42.10;;;;;;5172549;27;45372;-71
2022/08/25 06:44:04;;;;;;;2.85;2.13;;;26.50;42.00;;;;;;5172813;27;45339;-71
2022/08/25 06:46:31;;;;;;;2.40;2.20;;;26.50;42.00;;;;;;5172877;27;45170;-71
2022/08/25 06:48:59;;;;;;;2.20;1.92;;;26.50;42.00;;;;;;5172334;27;45213;-71
2022/08/25 06:51:26;;;;;;;3.55;2.38;;;26.50;41.90;;;;;;5172158;27;45349;-72
2022/08/25 06:53:53;;;;;;;4.30;2.30;;;26.50;42.50;;;;;;5172435;27;45290;-71
2022/08/25 06:56:21;;;;;;;3.40;2.28;;;26.40;44.00;;;;;;5172388;27;45287;-72
2022/08/25 06:58:49;;;;;;;3.78;2.28;;;26.40;44.90;;;;;;5172068;27;47306;-71
2022/08/25 07:01:18;;;;;;;3.30;2.13;;;26.40;45.40;;;;;;5172122;27;45306;-71
2022/08/25 07:03:45;;;;;;;2.50;2.22;;;26.40;45.70;;;;;;5172257;27;45389;-73
2022/08/25 07:06:12;;;;;;;3.92;2.45;;;26.30;45.80;;;;;;5154283;27;45113;-72
2022/08/25 07:08:39;;;;;;;4.32;1.85;;;26.30;46.30;;;;;;5139743;27;46391;-71
2022/08/25 07:11:06;;;;;;;2.80;2.60;;;26.30;46.30;;;;;;5150911;27;45185;-72
2022/08/25 07:13:33;;;;;;;3.58;2.53;;;26.30;46.60;;;;;;5131621;27;45233;-74
2022/08/25 07:16:01;;;;;;;3.67;2.38;;;26.30;46.90;;;;;;5156110;27;45493;-72
2022/08/25 07:18:28;;;;;;;2.63;2.40;;;26.30;47.00;;;;;;5144786;27;45341;-73
2022/08/25 07:20:55;;;;;;;3.28;2.20;;;26.20;47.30;;;;;;5150272;27;45196;-72
2022/08/25 07:23:22;;;;;;;3.00;2.28;;;26.20;47.50;;;;;;5150533;27;45381;-72
2022/08/25 07:25:49;;;;;;;3.20;2.90;;;26.20;47.60;;;;;;5150645;27;45407;-72
2022/08/25 07:28:16;;;;;;;2.17;2.05;;;26.20;47.70;;;;;;5150543;27;47553;-71
2022/08/25 07:30:43;;;;;;;3.90;2.33;;;26.20;47.80;;;;;;5150309;27;45437;-73
2022/08/25 07:33:11;;;;;;;3.88;2.50;;;26.20;48.00;;;;;;5150634;27;45287;-68
2022/08/25 07:35:36;;;;;;;2.78;2.50;;;26.20;48.00;;;;;;5150111;27;45451;-69
2022/08/25 07:38:04;;;;;;;9.60;2.30;;;26.20;47.80;;;;;;5149569;27;46593;-68
2022/08/25 07:40:32;;;;;;;2.35;1.90;;;26.30;48.30;;;;;;5146619;27;45547;-68
2022/08/25 07:43:00;;;;;;;4.57;2.15;;;26.40;47.90;;;;;;5145143;27;45476;-69
2022/08/25 07:45:29;;;;;;;2.38;2.17;;;26.30;47.80;;;;;;5147434;27;45401;-68
2022/08/25 07:47:56;;;;;;;2.22;1.98;;;26.40;47.80;;;;;;5149330;27;46372;-68
2022/08/25 07:50:24;;;;;;;4.72;2.17;;;26.30;47.60;;;;;;5149363;27;45270;-71
2022/08/25 07:52:51;;;;;;;3.42;2.35;;;26.40;47.70;;;;;;5149797;27;45382;-72
2022/08/25 07:55:18;;;;;;;5.80;2.88;;;26.40;47.70;;;;;;5149500;27;45315;-68
2022/08/25 07:57:46;;;;;;;5.28;2.10;;;26.50;47.50;;;;;;5147517;27;46426;-71
2022/08/25 08:00:13;;;;;;;5.47;3.42;;;26.70;47.50;;;;;;5149419;27;45416;-73
2022/08/25 08:02:40;;;;;;;7.00;4.47;;;26.80;47.20;;;;;;5149767;27;45248;-76
2022/08/25 08:05:08;;;;;;;4.20;2.72;;;26.90;47.30;;;;;;5148676;27;45419;-71
2022/08/25 08:07:36;;;;;;;6.38;5.53;;;27.00;46.70;;;;;;5149552;27;46469;-71
2022/08/25 08:10:04;;;;;;;3.05;2.58;;;27.10;46.30;;;;;;5149149;27;45334;-68
2022/08/25 08:12:30;;;;;;;2.97;2.70;;;27.10;46.10;;;;;;5147862;27;45400;-68
2022/08/25 08:14:58;;;;;;;3.05;2.35;;;27.00;46.30;;;;;;5148282;27;45506;-68
2022/08/25 08:17:25;;;;;;;2.50;2.10;;;27.00;46.40;;;;;;5148174;27;45381;-67
2022/08/25 08:19:52;;;;;;;3.45;2.67;;;27.00;46.30;;;;;;5148693;27;45323;-68
2022/08/25 08:22:20;;;;;;;6.97;3.00;;;27.00;46.30;;;;;;5149285;27;45258;-68
2022/08/25 08:24:48;;;;;;;5.80;2.67;;;27.00;46.40;;;;;;5149251;27;45191;-68
2022/08/25 08:27:15;;;;;;;2.80;2.47;;;27.00;46.50;;;;;;5148790;27;46825;-68
2022/08/25 08:29:42;;;;;;;2.75;2.55;;;26.90;46.50;;;;;;5148891;27;45362;-69
2022/08/25 08:32:12;;;;;;;11.40;3.60;;;26.90;46.70;;;;;;5142332;27;45261;-70
2022/08/25 08:34:39;;;;;;;4.78;2.35;;;27.00;47.20;;;;;;5143128;27;45362;-68
2022/08/25 08:37:06;;;;;;;3.78;2.20;;;27.00;46.60;;;;;;5148375;27;45563;-65
2022/08/25 08:39:33;;;;;;;4.47;2.55;;;27.00;46.60;;;;;;5148867;27;45145;-65
2022/08/25 08:42:20;;;;;;;10.10;3.28;;;27.10;46.50;;;;;;5148888;27;45211;-71
2022/08/25 08:45:25;;;;;;;3.35;2.83;;;27.20;46.20;;;;;;5149009;27;45394;-69
2022/08/25 08:48:22;;;;;;;4.32;2.33;;;27.20;46.20;;;;;;5098351;27;45499;-70
2022/08/25 08:50:52;;;;;;;6.82;3.08;;;27.30;46.10;;;;;;5140724;27;45409;-69
2022/08/25 08:53:23;;;;;;;5.13;2.80;;;27.40;46.50;;;;;;5149135;27;45177;-70
2022/08/25 08:55:51;;;;;;;4.43;2.60;;;27.50;46.10;;;;;;5148563;27;45399;-70
2022/08/25 08:58:20;;;;;;;6.65;2.45;;;27.50;45.80;;;;;;5148163;27;45303;-70
2022/08/25 09:00:49;;;;;;;4.15;2.72;;;27.60;45.50;;;;;;5139946;27;45360;-71
2022/08/25 09:03:20;;;;;;;3.30;2.70;;;27.60;45.40;;;;;;5148637;27;45409;-72
2022/08/25 09:05:48;;;;;;;4.43;2.53;;;27.50;45.60;;;;;;5148954;27;45417;-72
2022/08/25 09:08:15;;;;;;;2.55;2.35;;;27.50;45.60;;;;;;5148837;27;46687;-72
2022/08/25 09:10:50;;;;;;;2.70;2.20;;;27.50;45.50;;;;;;5148601;27;45370;-70
2022/08/25 09:13:22;;;;;;;2.53;2.33;;;27.60;45.50;;;;;;5148527;27;45280;-73
2022/08/25 09:18:42;;;;;;;7.18;2.88;;;27.70;45.30;;;;;;5128243;27;45349;-73
2022/08/25 09:21:11;;;;;;;8.18;2.40;;;27.70;45.70;;;;;;5130778;27;45224;-72
2022/08/25 09:23:44;;;;;;;2.90;2.60;;;27.70;45.60;;;;;;5127871;27;45221;-70
2022/08/25 09:26:26;;;;;;;3.25;1.95;;;27.70;45.60;;;;;;5128193;27;45300;-72
2022/08/25 09:28:58;;;;;;;4.45;2.55;;;27.80;46.20;;;;;;5127694;27;45302;-73
2022/08/25 09:31:26;;;;;;;4.38;2.10;;;27.80;45.60;;;;;;5136516;27;45206;-73
2022/08/25 09:33:55;;;;;;;3.03;2.08;;;27.90;45.40;;;;;;5147536;27;45314;-71
2022/08/25 09:36:22;;;;;;;2.58;2.30;;;28.00;45.30;;;;;;5147822;27;45290;-70
2022/08/25 09:38:49;;;;;;;2.63;2.42;;;28.00;45.30;;;;;;5147942;27;45496;-72
2022/08/25 09:41:17;;;;;;;4.07;2.75;;;28.00;45.20;;;;;;5148612;27;45306;-72
2022/08/25 09:43:51;;;;;;;3.65;2.50;;;28.10;45.20;;;;;;5148658;27;45281;-72
2022/08/25 09:46:25;;;;;;;2.53;2.33;;;28.10;45.00;;;;;;5148750;27;45290;-72
2022/08/25 09:48:54;;;;;;;3.00;2.10;;;28.10;45.10;;;;;;5148557;27;46651;-74
2022/08/25 09:51:23;;;;;;;3.28;2.33;;;28.20;45.00;;;;;;5148328;27;45307;-71
2022/08/25 09:53:53;;;;;;;2.10;2.00;;;28.20;44.90;;;;;;5147795;27;45283;-71
2022/08/25 09:56:21;;;;;;;2.85;2.00;;;28.20;44.80;;;;;;5147416;27;45284;-72
2022/08/25 09:58:48;;;;;;;4.97;2.38;;;28.20;45.00;;;;;;5148033;27;45484;-72
2022/08/25 10:01:16;;;;;;;3.25;2.13;;;28.30;45.00;;;;;;5147987;27;45222;-71
2022/08/25 10:03:59;;;;;;;2.33;2.17;;;28.30;44.80;;;;;;5148312;27;45248;-71
2022/08/25 10:06:27;;;;;;;1.92;1.80;;;28.40;44.70;;;;;;5148229;27;45220;-71
2022/08/25 10:08:57;;;;;;;3.00;2.13;;;28.40;44.60;;;;;;5150104;27;46370;-71
2022/08/25 10:11:33;;;;;;;2.00;1.90;;;28.50;44.50;;;;;;5151486;27;45204;-72
2022/08/25 10:14:01;;;;;;;4.07;2.20;;;28.50;44.40;;;;;;5151872;27;45129;-72
2022/08/25 10:16:30;;;;;;;2.28;2.08;;;28.60;44.30;;;;;;5152446;27;45399;-72
2022/08/25 10:19:03;;;;;;;3.33;1.90;;;28.60;44.30;;;;;;5172310;27;45330;-72
2022/08/25 10:21:30;;;;;;;2.40;2.20;;;28.70;44.10;;;;;;5172639;27;45376;-72
2022/08/25 10:23:57;;;;;;;2.20;2.00;;;28.70;43.80;;;;;;5172918;27;45324;-71
2022/08/25 10:26:31;;;;;;;2.70;1.90;;;28.70;43.60;;;;;;5172631;27;45595;-72
2022/08/25 10:29:06;;;;;;;3.20;2.10;;;28.80;43.50;;;;;;5172624;27;46318;-72
2022/08/25 10:31:35;;;;;;;2.65;1.90;;;28.90;43.40;;;;;;5153691;27;45260;-72
2022/08/25 10:34:15;;;;;;;2.58;1.98;;;28.90;43.20;;;;;;5142733;27;45200;-73
2022/08/25 10:36:47;;;;;;;1.85;1.75;;;29.00;43.10;;;;;;5150946;27;45426;-73
2022/08/25 10:39:20;;;;;;;3.03;2.22;;;29.00;43.50;;;;;;5150949;27;45506;-71
2022/08/25 10:41:50;;;;;;;2.72;1.88;;;29.00;43.10;;;;;;5151034;27;45180;-71
2022/08/25 10:47:31;;;;;;;3.00;2.80;;;29.10;41.90;;;;;;5151001;27;45524;-71
2022/08/25 10:50:03;;;;;;;2.30;2.05;;;29.20;42.40;;;;;;5146096;27;46413;-71
2022/08/25 10:52:32;;;;;;;2.60;1.92;;;29.20;41.10;;;;;;5150443;27;45358;-72
2022/08/25 10:55:01;;;;;;;2.03;1.92;;;29.20;41.40;;;;;;5150478;27;45162;-71
2022/08/25 10:57:32;;;;;;;1.92;1.83;;;29.20;41.00;;;;;;5150064;27;45445;-72
2022/08/25 11:00:02;;;;;;;1.80;1.70;;;29.30;40.80;;;;;;5150832;27;48830;-72
2022/08/25 11:03:04;;;;;;;1.70;1.60;;;29.40;41.00;;;;;;5150358;27;45268;-72
2022/08/25 11:05:35;;;;;;;2.55;1.70;;;29.40;41.00;;;;;;5143721;27;45452;-71
2022/08/25 11:08:06;;;;;;;3.13;1.90;;;29.50;40.40;;;;;;5150170;27;45544;-72
2022/08/25 11:10:38;;;;;;;2.85;1.90;;;29.50;40.50;;;;;;5149151;27;45268;-72
2022/08/25 11:13:08;;;;;;;2.53;1.55;;;29.60;40.70;;;;;;5150443;27;45188;-71
2022/08/25 11:15:37;;;;;;;2.55;1.80;;;29.70;40.90;;;;;;5149952;27;45315;-72
2022/08/25 11:18:05;;;;;;;4.43;2.40;;;29.80;40.70;;;;;;5150293;27;45478;-71
2022/08/25 11:20:35;;;;;;;2.00;1.90;;;29.80;40.70;;;;;;5149240;27;46675;-72
2022/08/25 11:23:08;;;;;;;2.83;2.00;;;29.90;40.50;;;;;;5150528;27;45252;-72
2022/08/25 11:25:37;;;;;;;2.38;2.17;;;29.90;39.80;;;;;;5150754;27;45321;-72
2022/08/25 11:28:06;;;;;;;1.98;1.88;;;29.90;40.10;;;;;;5149607;27;45405;-71
2022/08/25 11:30:33;;;;;;;3.47;1.92;;;30.00;40.10;;;;;;5152195;27;46185;-72
2022/08/25 11:33:00;;;;;;;3.00;1.77;;;30.10;39.50;;;;;;5170764;27;45346;-72
2022/08/25 11:35:28;;;;;;;1.92;1.80;;;30.10;39.10;;;;;;5151953;27;45410;-71
2022/08/25 11:38:06;;;;;;;2.83;1.63;;;30.20;39.80;;;;;;5150150;27;45557;-71
2022/08/25 11:40:39;;;;;;;1.83;1.60;;;30.20;39.80;;;;;;5149908;27;45202;-71
2022/08/25 11:43:12;;;;;;;2.63;2.10;;;30.20;39.00;;;;;;5150155;27;45211;-71
2022/08/25 11:45:52;;;;;;;1.83;1.73;;;30.30;39.90;;;;;;5150086;27;45249;-72
2022/08/25 11:48:25;;;;;;;1.70;1.55;;;30.40;39.90;;;;;;5146713;27;45415;-72
2022/08/25 11:50:57;;;;;;;1.90;1.70;;;30.40;39.30;;;;;;5149427;27;45391;-72
2022/08/25 11:53:26;;;;;;;1.65;1.55;;;30.40;38.90;;;;;;5149415;27;45236;-72
2022/08/25 11:55:54;;;;;;;2.33;1.70;;;30.50;39.10;;;;;;5149735;27;45185;-71
2022/08/25 11:58:33;;;;;;;2.00;1.80;;;30.50;38.50;;;;;;5150121;27;45398;-71
2022/08/25 12:01:00;;;;;;;1.73;1.63;;;30.50;38.90;;;;;;5128474;27;46645;-71
2022/08/25 12:03:50;;;;;;;3.55;1.77;;;30.60;38.70;;;;;;5128551;27;45308;-71
2022/08/25 12:06:25;;;;;;;2.00;1.70;;;30.60;38.60;;;;;;5134821;27;45331;-72
2022/08/25 12:09:18;;;;;;;2.03;1.45;;;30.70;39.50;;;;;;5129452;27;45344;-71
2022/08/25 12:11:55;;;;;;;1.60;1.50;;;30.80;39.90;;;;;;5138693;27;45365;-72
2022/08/25 12:14:38;;;;;;;2.40;1.63;;;30.90;38.90;;;;;;5149877;27;45316;-73
2022/08/25 12:17:08;;;;;;;1.92;1.65;;;30.90;38.70;;;;;;5155756;27;45232;-72
2022/08/25 12:19:54;;;;;;;2.95;1.88;;;30.80;38.40;;;;;;5171153;27;45448;-72
2022/08/25 12:22:50;;;;;;;2.95;1.90;;;30.90;38.50;;;;;;5168314;27;46385;-73
2022/08/25 12:25:30;;;;;;;1.92;1.75;;;31.00;38.50;;;;;;5143947;27;45450;-72
2022/08/25 12:28:03;;;;;;;2.28;1.90;;;31.10;38.70;;;;;;5146202;27;45451;-73
2022/08/25 12:30:32;;;;;;;1.90;1.80;;;31.10;38.10;;;;;;5146037;27;45445;-72
2022/08/25 12:33:03;;;;;;;2.03;1.92;;;31.30;38.20;;;;;;5146516;27;45488;-72
2022/08/25 12:35:31;;;;;;;1.83;1.73;;;31.30;38.40;;;;;;5149244;27;45537;-72
2022/08/25 12:38:03;;;;;;;2.88;1.90;;;31.40;38.70;;;;;;5148973;27;45343;-71
2022/08/25 12:40:34;;;;;;;3.90;1.92;;;31.40;38.60;;;;;;5149733;27;45586;-72
2022/08/25 12:43:10;;;;;;;2.47;1.88;;;31.50;38.70;;;;;;5149013;27;46427;-73
2022/08/25 12:45:42;;;;;;;2.13;1.90;;;31.60;38.40;;;;;;5149383;27;45142;-72
2022/08/25 12:48:57;;;;;;;1.90;1.80;;;31.70;38.90;;;;;;5149413;27;45275;-71
2022/08/25 12:51:25;;;;;;;2.10;1.75;;;31.70;37.90;;;;;;5149909;27;45311;-72
2022/08/25 12:53:53;;;;;;;1.95;1.85;;;31.60;37.80;;;;;;5148718;27;46474;-72
2022/08/25 12:56:27;;;;;;;2.00;1.80;;;31.60;37.50;;;;;;5148143;27;45374;-72
2022/08/25 12:58:56;;;;;;;3.15;2.17;;;31.60;37.90;;;;;;5149455;27;45319;-72
2022/08/25 13:01:29;;;;;;;2.08;1.83;;;31.70;37.70;;;;;;5149155;27;45232;-72
2022/08/25 13:04:17;;;;;;;1.85;1.75;;;31.70;37.60;;;;;;5149101;27;47454;-72
2022/08/25 13:06:53;;;;;;;2.00;1.90;;;31.80;38.00;;;;;;5150106;27;45204;-72